Delta Virtual Airport Information Service

Montreal Pierre Elliott Trudeau Airport

ICAO: CYUL Country: Canada
Latitude: 45.4706 Longitude: -73.7408
Latest Arrival : JZA6 (3) (RJAA-CYUL) Latest Departure : ROU1857 (CYUL-KLAS)


WX CaptureLIVE
Data provided by noaa.gov | Fetched at 21:52:36

METAR : CYUL 240200Z 15014G21KT 15SM FEW080 FEW240 19/15 A2976 RMK AC1CI1 AC TR CI TR SLP080 DENSITY ALT 900FT

TAF : CYUL 240238Z 2403/2424 15015G25KT P6SM FEW060 FM240400 20015G25KT P6SM BKN060 TEMPO 2406/2414 5SM -SHRA BR BKN020 PROB30 2407/2411 VRB15G25KT 2SM TSRA BR BKN020 OVC040CB FM241400 30010G20KT P6SM BKN030 FM241700 30010KT P6SM SCT030 RMK NXT FCST BY 240600Z


Runway Data for CYUL
Data provided by openaviationdata.com

Runway ID Mag Var Hdg Length Elevation Surface ILS Freq ILS Id ILS Slope
06L 15 27° 11020 ft 118 ft Asphalt 109.3 IUL 3
06R 15 27° 9526 ft 118 ft Asphalt 110.5 IOA 3
24L 15 207° 9526 ft 118 ft Asphalt 110.5 IMQ 3
24R 15 207° 11020 ft 118 ft Asphalt 111.9 IZZ 3
28 15 252° 6500 ft 118 ft Asphalt -- -- --

Montreal Pierre Elliott Trudeau Airport, Canada
Use only for reference purposes



Not for navigational purposes.